Time;durP1;ratioP1;P1;durP2;ratioP2;P2;SDS_P1;SDS_P2;PMS_P1;PMS_P2;Temp;Humidity;BMP_temperature;BMP_pressure;BME280_temperature;BME280_humidity;BME280_pressure;Samples;Min_cycle;Max_cycle;Signal;HPM_P1;HPM_P2
2022/10/16 00:01:11;;;;;;;6.97;2.20;;;11.00;99.90;;;;;;5007399;28;20042;-39
2022/10/16 00:03:38;;;;;;;6.18;2.17;;;10.50;99.90;;;;;;5007874;28;20450;-39
2022/10/16 00:06:04;;;;;;;8.02;2.63;;;10.80;99.90;;;;;;5007390;28;20573;-40
2022/10/16 00:08:31;;;;;;;8.50;2.55;;;10.50;99.90;;;;;;5007951;28;20050;-39
2022/10/16 00:11:05;;;;;;;12.38;2.35;;;10.80;99.90;;;;;;5007952;28;20041;-39
2022/10/16 00:13:32;;;;;;;7.10;2.03;;;10.70;99.90;;;;;;5007976;28;20411;-39
2022/10/16 00:15:59;;;;;;;7.03;2.17;;;10.90;99.90;;;;;;5006966;28;20097;-39
2022/10/16 00:18:26;;;;;;;4.55;1.95;;;10.90;99.90;;;;;;5007637;28;20496;-39
2022/10/16 00:20:52;;;;;;;7.32;2.20;;;10.90;99.90;;;;;;5007640;28;20113;-39
2022/10/16 00:23:18;;;;;;;6.07;2.72;;;11.00;99.90;;;;;;5007174;28;20180;-39
2022/10/16 00:25:44;;;;;;;7.95;2.30;;;10.80;99.90;;;;;;5007583;28;20145;-39
2022/10/16 00:28:09;;;;;;;8.43;2.08;;;10.60;99.90;;;;;;5007592;28;20124;-39
2022/10/16 00:30:38;;;;;;;8.38;2.05;;;11.10;99.90;;;;;;5007353;28;20096;-39
2022/10/16 00:33:04;;;;;;;7.22;2.25;;;10.90;99.90;;;;;;5007137;28;20046;-39
2022/10/16 00:35:31;;;;;;;6.65;1.75;;;10.90;99.90;;;;;;5006037;28;20470;-40
2022/10/16 00:37:56;;;;;;;8.73;2.08;;;10.50;99.90;;;;;;5005804;28;20377;-39
2022/10/16 00:40:22;;;;;;;8.73;2.03;;;10.90;99.90;;;;;;5007201;28;20368;-39
2022/10/16 00:42:48;;;;;;;5.63;1.83;;;10.90;99.90;;;;;;5007365;28;20146;-39
2022/10/16 00:45:13;;;;;;;7.53;1.83;;;10.90;99.90;;;;;;5007094;28;20551;-39
2022/10/16 00:47:47;;;;;;;7.38;2.28;;;10.90;99.90;;;;;;5006934;28;20488;-39
2022/10/16 00:50:31;;;;;;;7.90;1.73;;;10.50;99.90;;;;;;5006981;28;20046;-39
2022/10/16 00:52:58;;;;;;;8.85;2.20;;;10.60;99.90;;;;;;5007261;28;20088;-39
2022/10/16 00:55:24;;;;;;;8.20;2.53;;;11.10;99.90;;;;;;5007114;28;20041;-39
2022/10/16 00:57:51;;;;;;;7.85;2.30;;;10.50;99.90;;;;;;5007529;28;20042;-39
2022/10/16 01:00:22;;;;;;;7.40;1.77;;;11.00;99.90;;;;;;5007209;28;20045;-39
2022/10/16 01:02:59;;;;;;;6.20;1.40;;;10.50;99.90;;;;;;5007575;28;20045;-40
2022/10/16 01:05:50;;;;;;;4.88;1.40;;;11.10;99.90;;;;;;5007172;28;20448;-39
2022/10/16 01:08:33;;;;;;;6.90;1.58;;;10.60;99.90;;;;;;5007224;28;20451;-40
2022/10/16 01:11:29;;;;;;;6.35;1.55;;;11.00;99.90;;;;;;5007404;28;20147;-39
2022/10/16 01:14:00;;;;;;;10.32;1.85;;;11.40;99.90;;;;;;5003171;28;20054;-39
2022/10/16 01:16:31;;;;;;;7.47;1.83;;;10.90;99.90;;;;;;5006793;28;20097;-39
2022/10/16 01:19:16;;;;;;;6.70;1.50;;;11.00;99.90;;;;;;5007205;28;20042;-39
2022/10/16 01:21:44;;;;;;;4.95;1.40;;;11.20;99.90;;;;;;5007282;28;20046;-39
2022/10/16 01:24:28;;;;;;;6.20;1.25;;;10.90;99.90;;;;;;5007263;28;20481;-39
2022/10/16 01:27:03;;;;;;;6.65;1.65;;;10.70;99.90;;;;;;5006229;28;20095;-39
2022/10/16 01:29:40;;;;;;;7.93;1.83;;;10.60;99.90;;;;;;5006614;28;20037;-39
2022/10/16 01:32:34;;;;;;;3.63;0.95;;;10.60;99.90;;;;;;5006408;28;20487;-40
2022/10/16 01:35:09;;;;;;;5.43;1.50;;;11.20;99.90;;;;;;5002149;28;20056;-39
2022/10/16 01:37:48;;;;;;;6.93;1.92;;;10.80;99.90;;;;;;5006037;28;20829;-39
2022/10/16 01:40:18;;;;;;;8.73;1.60;;;11.60;99.90;;;;;;5005970;28;20065;-39
2022/10/16 01:42:52;;;;;;;8.15;3.20;;;10.90;99.90;;;;;;5006118;28;20050;-39
2022/10/16 01:45:20;;;;;;;7.10;1.80;;;11.30;99.90;;;;;;5005281;28;20046;-39
2022/10/16 01:47:47;;;;;;;9.27;2.30;;;11.20;99.90;;;;;;5005621;28;20157;-39
2022/10/16 01:50:16;;;;;;;7.10;2.08;;;10.80;99.90;;;;;;5005747;28;20045;-40
2022/10/16 01:52:45;;;;;;;6.80;2.30;;;10.80;99.90;;;;;;5005546;28;20046;-39
2022/10/16 01:55:14;;;;;;;6.90;1.60;;;10.90;99.90;;;;;;5005259;28;20488;-40
2022/10/16 01:57:44;;;;;;;4.53;1.70;;;11.30;99.90;;;;;;5005962;28;20599;-39
2022/10/16 02:00:14;;;;;;;4.55;1.80;;;11.50;99.90;;;;;;5005959;28;20038;-39
2022/10/16 02:02:44;;;;;;;4.65;1.65;;;11.10;99.90;;;;;;5004645;28;20050;-40
2022/10/16 02:05:26;;;;;;;6.18;1.95;;;11.00;99.90;;;;;;5005768;28;20196;-40
2022/10/16 02:07:52;;;;;;;6.20;1.80;;;11.00;99.90;;;;;;5006013;28;20041;-39
2022/10/16 02:10:18;;;;;;;6.30;1.90;;;11.60;99.90;;;;;;5006016;28;20037;-39
2022/10/16 02:12:57;;;;;;;5.20;2.00;;;11.10;99.90;;;;;;5006237;28;20077;-39
2022/10/16 02:15:23;;;;;;;10.68;2.42;;;11.60;99.90;;;;;;5005559;28;20146;-39
2022/10/16 02:17:48;;;;;;;8.50;2.03;;;11.50;99.90;;;;;;5006338;28;20120;-39
2022/10/16 02:20:14;;;;;;;7.68;2.33;;;11.40;99.90;;;;;;5005752;28;20373;-39
2022/10/16 02:22:46;;;;;;;5.47;1.92;;;11.10;99.90;;;;;;5005930;28;20128;-39
2022/10/16 02:25:26;;;;;;;5.80;2.40;;;11.10;99.90;;;;;;5005414;28;20527;-39
2022/10/16 02:28:12;;;;;;;4.85;2.13;;;11.10;99.90;;;;;;5005861;28;20084;-39
2022/10/16 02:30:48;;;;;;;7.55;2.50;;;11.20;99.90;;;;;;5006139;28;20165;-40
2022/10/16 02:33:15;;;;;;;6.05;2.22;;;11.50;99.90;;;;;;5006297;28;20084;-39
2022/10/16 02:35:44;;;;;;;6.28;2.00;;;11.50;99.90;;;;;;5005661;28;20519;-40
2022/10/16 02:38:11;;;;;;;11.27;2.67;;;11.50;99.90;;;;;;5007494;28;20072;-40
2022/10/16 02:40:37;;;;;;;8.30;2.08;;;11.70;99.90;;;;;;5008802;28;20372;-39
2022/10/16 02:43:04;;;;;;;6.85;1.73;;;11.70;99.90;;;;;;5009295;28;20471;-39
2022/10/16 02:45:30;;;;;;;7.25;1.85;;;11.20;99.90;;;;;;5009167;28;20138;-39
2022/10/16 02:47:56;;;;;;;5.53;2.15;;;11.20;99.90;;;;;;5009504;28;20049;-39
2022/10/16 02:50:22;;;;;;;9.70;2.17;;;12.00;99.90;;;;;;5009205;28;20124;-39
2022/10/16 02:52:48;;;;;;;7.35;1.40;;;11.70;99.90;;;;;;5009395;28;20049;-40
2022/10/16 02:55:13;;;;;;;6.40;2.00;;;11.60;99.90;;;;;;5009186;28;20046;-39
2022/10/16 02:57:40;;;;;;;5.78;1.63;;;11.40;99.90;;;;;;5009204;28;20041;-40
2022/10/16 03:00:11;;;;;;;3.85;1.55;;;12.00;99.90;;;;;;5009720;28;20167;-40
2022/10/16 03:02:37;;;;;;;3.50;1.70;;;11.50;99.90;;;;;;5009023;28;20492;-39
2022/10/16 03:05:02;;;;;;;4.72;1.65;;;12.50;99.90;;;;;;5009636;28;20140;-40
2022/10/16 03:07:28;;;;;;;7.85;1.77;;;11.50;99.90;;;;;;5009042;28;20045;-39
2022/10/16 03:09:55;;;;;;;5.95;1.83;;;11.80;99.90;;;;;;5009066;28;20499;-39
2022/10/16 03:12:21;;;;;;;7.65;1.85;;;11.80;99.90;;;;;;5008988;28;20072;-39
2022/10/16 03:14:47;;;;;;;5.35;1.98;;;11.80;99.90;;;;;;5008638;28;20050;-39
2022/10/16 03:17:13;;;;;;;5.25;1.48;;;11.50;99.90;;;;;;5008695;28;20073;-39
2022/10/16 03:19:39;;;;;;;5.13;1.85;;;12.20;99.90;;;;;;4990619;28;20480;-39
2022/10/16 03:22:05;;;;;;;4.05;1.73;;;12.00;99.90;;;;;;5008620;28;20129;-39
2022/10/16 03:24:30;;;;;;;4.70;1.65;;;11.70;99.90;;;;;;5008351;28;20429;-39
2022/10/16 03:26:56;;;;;;;5.75;1.67;;;11.80;99.90;;;;;;5008545;28;20437;-39
2022/10/16 03:29:22;;;;;;;3.47;1.25;;;11.90;99.90;;;;;;5008420;28;20069;-39
2022/10/16 03:31:49;;;;;;;4.10;1.90;;;11.70;99.90;;;;;;5008781;28;20125;-39
2022/10/16 03:34:15;;;;;;;5.78;1.70;;;12.30;99.90;;;;;;5008854;28;20075;-39
2022/10/16 03:36:40;;;;;;;4.13;1.30;;;11.70;99.90;;;;;;5008458;28;20487;-39
2022/10/16 03:39:06;;;;;;;6.03;1.60;;;11.60;99.90;;;;;;5008838;28;20077;-39
2022/10/16 03:41:32;;;;;;;3.33;1.23;;;11.50;99.90;;;;;;5008212;28;20644;-39
2022/10/16 03:43:57;;;;;;;6.15;1.48;;;11.70;99.90;;;;;;5008298;28;20132;-39
2022/10/16 03:46:23;;;;;;;4.38;1.27;;;12.00;99.90;;;;;;5007664;28;20053;-39
2022/10/16 03:48:49;;;;;;;4.43;1.50;;;11.40;99.90;;;;;;5007377;28;20125;-39
2022/10/16 03:51:14;;;;;;;5.90;2.70;;;11.50;99.90;;;;;;5007547;28;20084;-40
2022/10/16 03:53:40;;;;;;;7.18;1.65;;;11.80;99.90;;;;;;5007343;28;20097;-39
2022/10/16 03:56:06;;;;;;;5.25;1.40;;;11.40;99.90;;;;;;5007967;28;20044;-39
2022/10/16 03:58:31;;;;;;;7.75;1.58;;;11.50;99.90;;;;;;5007374;28;20120;-39
2022/10/16 04:00:57;;;;;;;3.55;1.42;;;11.90;99.90;;;;;;5007798;28;20034;-39
2022/10/16 04:03:23;;;;;;;3.65;1.30;;;11.90;99.90;;;;;;5007444;28;20050;-39
2022/10/16 04:05:49;;;;;;;6.22;1.80;;;11.80;99.90;;;;;;5007532;28;20045;-39
2022/10/16 04:08:15;;;;;;;3.80;1.67;;;11.70;99.90;;;;;;5007841;28;20100;-39
2022/10/16 04:10:44;;;;;;;6.45;2.80;;;11.80;99.90;;;;;;5007227;28;20081;-39
2022/10/16 04:13:10;;;;;;;6.38;2.10;;;11.90;99.90;;;;;;5008005;28;20511;-39
2022/10/16 04:15:36;;;;;;;6.82;1.60;;;11.80;99.90;;;;;;5007630;28;20133;-39
2022/10/16 04:18:02;;;;;;;7.05;2.08;;;11.90;99.90;;;;;;5007867;28;20124;-39
2022/10/16 04:20:27;;;;;;;3.67;1.33;;;11.30;99.90;;;;;;5007539;28;20046;-39
2022/10/16 04:22:53;;;;;;;6.80;1.77;;;11.40;99.90;;;;;;5007546;28;20113;-39
2022/10/16 04:25:18;;;;;;;4.63;1.98;;;11.60;99.90;;;;;;5007501;28;20195;-39
2022/10/16 04:27:44;;;;;;;4.72;1.70;;;11.50;99.90;;;;;;5007528;28;20507;-39
2022/10/16 04:30:10;;;;;;;3.85;1.80;;;11.50;99.90;;;;;;5007469;28;20681;-39
2022/10/16 04:32:36;;;;;;;5.15;1.90;;;11.30;99.90;;;;;;5007061;28;20053;-39
2022/10/16 04:35:02;;;;;;;5.50;2.28;;;11.20;99.90;;;;;;5007233;28;20400;-39
2022/10/16 04:37:28;;;;;;;5.78;1.83;;;11.00;99.90;;;;;;5006859;28;20041;-39
2022/10/16 04:39:54;;;;;;;6.03;2.42;;;11.30;99.90;;;;;;5006890;28;20377;-39
2022/10/16 04:42:20;;;;;;;7.60;2.33;;;11.60;99.90;;;;;;5007058;28;20053;-39
2022/10/16 04:44:46;;;;;;;4.78;2.13;;;11.50;99.90;;;;;;5006353;28;20463;-39
2022/10/16 04:47:12;;;;;;;4.70;1.75;;;11.10;99.90;;;;;;5006711;28;20046;-39
2022/10/16 04:49:38;;;;;;;6.55;2.30;;;11.10;99.90;;;;;;5006460;28;20050;-39
2022/10/16 04:52:04;;;;;;;7.60;3.08;;;11.50;99.90;;;;;;5006343;28;20042;-39
2022/10/16 04:54:30;;;;;;;4.57;2.60;;;11.70;99.90;;;;;;5006606;28;20125;-39
2022/10/16 04:56:56;;;;;;;4.75;2.78;;;11.00;99.90;;;;;;5006026;28;20124;-39
2022/10/16 04:59:23;;;;;;;5.03;2.58;;;11.40;99.90;;;;;;5006582;28;20224;-39
2022/10/16 05:01:49;;;;;;;5.45;2.80;;;11.50;99.90;;;;;;5006052;28;20484;-39
2022/10/16 05:04:15;;;;;;;6.93;2.63;;;11.30;99.90;;;;;;5006708;28;20042;-39
2022/10/16 05:06:41;;;;;;;8.27;3.03;;;11.20;99.90;;;;;;5006836;28;20049;-39
2022/10/16 05:09:07;;;;;;;5.25;3.03;;;11.60;99.90;;;;;;5007001;28;20045;-39
2022/10/16 05:11:34;;;;;;;4.55;2.55;;;11.40;99.90;;;;;;5004970;28;20468;-39
2022/10/16 05:14:00;;;;;;;6.05;3.28;;;11.40;99.90;;;;;;5006537;28;20048;-39
2022/10/16 05:16:26;;;;;;;5.93;3.00;;;11.40;99.90;;;;;;5006965;28;20058;-39
2022/10/16 05:18:52;;;;;;;4.28;3.72;;;11.30;99.90;;;;;;5006686;28;20120;-39
2022/10/16 05:21:18;;;;;;;7.50;3.70;;;11.50;99.90;;;;;;5006883;28;20045;-39
2022/10/16 05:23:44;;;;;;;5.47;3.20;;;11.60;99.90;;;;;;5007197;28;20041;-39
2022/10/16 05:26:10;;;;;;;7.82;3.30;;;11.70;99.90;;;;;;5007430;28;20064;-39
2022/10/16 05:28:36;;;;;;;7.13;3.58;;;12.00;99.90;;;;;;5007664;28;20046;-39
2022/10/16 05:31:06;;;;;;;5.55;2.92;;;11.30;99.90;;;;;;5006986;28;20448;-39
2022/10/16 05:33:32;;;;;;;7.35;2.88;;;11.30;99.90;;;;;;5006727;28;20054;-39
2022/10/16 05:36:05;;;;;;;7.90;3.22;;;11.90;99.90;;;;;;5006508;28;20053;-39
2022/10/16 05:38:31;;;;;;;7.18;2.78;;;11.70;99.90;;;;;;5006710;28;20042;-39
2022/10/16 05:40:57;;;;;;;5.88;2.85;;;12.20;99.90;;;;;;5006438;28;20439;-39
2022/10/16 05:43:23;;;;;;;6.00;3.30;;;11.40;99.90;;;;;;5006578;28;20060;-39
2022/10/16 05:46:00;;;;;;;5.43;2.83;;;11.50;99.90;;;;;;5006610;28;20484;-39
2022/10/16 05:48:26;;;;;;;6.40;3.05;;;11.30;99.90;;;;;;5007029;28;20042;-39
2022/10/16 05:51:08;;;;;;;6.82;3.08;;;11.80;99.90;;;;;;5006668;28;20379;-39
2022/10/16 05:53:34;;;;;;;;;;;11.70;99.90;;;;;;5007270;28;20081;-39
2022/10/16 05:56:00;;;;;;;7.20;2.90;;;11.70;99.90;;;;;;5006443;28;19961;-39
2022/10/16 05:58:37;;;;;;;7.78;3.85;;;11.60;99.90;;;;;;5006320;28;20041;-39
2022/10/16 06:01:06;;;;;;;5.88;2.92;;;11.80;99.90;;;;;;5006332;28;20117;-39
2022/10/16 06:03:33;;;;;;;5.35;3.08;;;11.40;99.90;;;;;;5006331;28;20045;-39
2022/10/16 06:05:59;;;;;;;5.38;2.72;;;11.50;99.90;;;;;;5005068;28;20295;-39
2022/10/16 06:08:24;;;;;;;4.53;2.75;;;11.70;99.90;;;;;;5006949;28;20128;-39
2022/10/16 06:11:04;;;;;;;4.30;3.13;;;11.80;99.90;;;;;;5006646;28;20504;-39
2022/10/16 06:13:30;;;;;;;7.35;3.05;;;12.60;99.90;;;;;;5009614;28;20049;-39
2022/10/16 06:15:58;;;;;;;6.68;3.00;;;12.00;99.90;;;;;;5009995;28;20053;-39
2022/10/16 06:18:24;;;;;;;6.90;2.97;;;12.00;99.90;;;;;;5010371;28;20088;-39
2022/10/16 06:20:50;;;;;;;11.45;3.33;;;11.90;99.90;;;;;;5009668;28;20103;-39
2022/10/16 06:23:16;;;;;;;4.70;2.90;;;11.60;99.90;;;;;;5010494;28;20042;-39
2022/10/16 06:25:41;;;;;;;4.70;2.80;;;12.00;99.90;;;;;;5010044;28;20487;-39
2022/10/16 06:28:07;;;;;;;4.82;3.00;;;11.50;99.90;;;;;;5009662;28;20046;-39
2022/10/16 06:30:33;;;;;;;6.68;2.90;;;12.00;99.90;;;;;;5009759;28;20042;-39
2022/10/16 06:32:58;;;;;;;5.45;3.03;;;12.30;99.90;;;;;;5009481;28;20560;-39
2022/10/16 06:35:24;;;;;;;5.82;3.08;;;11.60;99.90;;;;;;5009874;28;20042;-39
2022/10/16 06:37:49;;;;;;;3.70;2.50;;;11.90;99.90;;;;;;5009316;28;20490;-39
2022/10/16 06:40:15;;;;;;;4.85;2.97;;;11.90;99.90;;;;;;5009601;28;20193;-39
2022/10/16 06:42:42;;;;;;;6.40;2.55;;;12.20;99.90;;;;;;5009578;28;20487;-39
2022/10/16 06:45:08;;;;;;;5.97;2.47;;;12.00;99.90;;;;;;5009589;28;20045;-39
2022/10/16 06:47:33;;;;;;;6.18;3.00;;;11.60;99.90;;;;;;5009590;28;20173;-39
2022/10/16 06:49:59;;;;;;;4.40;2.60;;;12.10;99.90;;;;;;5009044;28;20050;-39
2022/10/16 06:52:27;;;;;;;6.30;2.88;;;12.10;99.90;;;;;;5009227;28;20480;-39
2022/10/16 06:54:52;;;;;;;5.93;1.98;;;12.50;99.90;;;;;;5009215;28;20077;-39
2022/10/16 06:57:18;;;;;;;5.60;1.90;;;12.20;99.90;;;;;;5009249;28;20117;-39
2022/10/16 06:59:44;;;;;;;5.55;2.10;;;12.40;99.90;;;;;;5009180;28;20137;-39
2022/10/16 07:02:10;;;;;;;5.85;1.95;;;12.30;99.90;;;;;;5009086;28;20041;-39
2022/10/16 07:04:36;;;;;;;6.00;1.90;;;12.30;99.90;;;;;;5009108;28;20041;-39
2022/10/16 07:07:02;;;;;;;3.63;1.77;;;12.00;99.90;;;;;;5009030;28;20045;-39
2022/10/16 07:09:27;;;;;;;4.80;1.63;;;12.40;99.90;;;;;;5009416;28;20056;-39
2022/10/16 07:11:53;;;;;;;8.80;2.33;;;12.40;99.90;;;;;;5008822;28;20484;-40
2022/10/16 07:14:20;;;;;;;4.22;1.58;;;12.30;99.90;;;;;;5009037;28;20045;-39
2022/10/16 07:16:47;;;;;;;5.43;1.75;;;12.10;99.90;;;;;;5008426;28;20050;-39
2022/10/16 07:19:15;;;;;;;4.30;1.58;;;12.20;99.90;;;;;;5008395;28;20049;-39
2022/10/16 07:21:41;;;;;;;9.15;2.17;;;12.70;99.90;;;;;;5008807;28;20097;-39
2022/10/16 07:24:12;;;;;;;5.25;1.58;;;12.60;99.90;;;;;;5007333;28;20117;-39
2022/10/16 07:26:39;;;;;;;5.13;1.70;;;12.70;99.90;;;;;;5008743;28;20053;-39
2022/10/16 07:29:16;;;;;;;5.38;1.75;;;12.40;99.90;;;;;;5008468;28;20148;-40
2022/10/16 07:31:42;;;;;;;6.00;1.60;;;12.50;99.90;;;;;;5008480;28;20045;-39
2022/10/16 07:34:08;;;;;;;6.78;1.88;;;13.00;99.90;;;;;;5007657;28;20484;-39
2022/10/16 07:36:34;;;;;;;3.28;1.48;;;12.60;99.90;;;;;;5007587;28;20052;-39
2022/10/16 07:39:00;;;;;;;3.85;1.60;;;12.60;99.90;;;;;;5007595;28;20038;-39
2022/10/16 07:41:25;;;;;;;6.70;1.38;;;13.10;99.90;;;;;;5007972;28;20652;-39
2022/10/16 07:43:52;;;;;;;3.42;1.35;;;12.70;99.90;;;;;;5008227;28;20050;-39
2022/10/16 07:46:20;;;;;;;3.45;1.50;;;12.90;99.90;;;;;;5008024;28;20411;-39
2022/10/16 07:48:47;;;;;;;4.45;1.48;;;13.40;99.90;;;;;;5007299;28;20520;-39
2022/10/16 07:51:16;;;;;;;4.68;1.50;;;13.60;99.90;;;;;;5007345;28;20061;-39
2022/10/16 07:53:42;;;;;;;3.58;1.48;;;13.20;99.90;;;;;;5007540;28;20037;-39
2022/10/16 07:56:08;;;;;;;3.70;1.65;;;13.40;99.90;;;;;;5007551;28;20053;-39
2022/10/16 07:58:36;;;;;;;3.55;1.42;;;13.40;99.90;;;;;;5007960;28;20439;-39
2022/10/16 08:01:07;;;;;;;5.30;1.67;;;13.50;99.90;;;;;;5007760;28;20448;-39
2022/10/16 08:03:33;;;;;;;2.28;1.05;;;13.50;99.90;;;;;;5007740;28;20399;-39
2022/10/16 08:06:00;;;;;;;4.70;1.52;;;13.60;99.90;;;;;;5007680;28;20543;-39
2022/10/16 08:08:27;;;;;;;5.55;1.42;;;13.70;99.90;;;;;;5007604;28;20049;-41
2022/10/16 08:10:52;;;;;;;3.58;1.17;;;13.90;99.90;;;;;;5007433;28;20056;-39
2022/10/16 08:13:18;;;;;;;3.38;1.90;;;13.90;99.90;;;;;;5007286;28;20397;-40
2022/10/16 08:15:45;;;;;;;2.78;1.00;;;13.90;99.90;;;;;;5007357;28;20504;-39
2022/10/16 08:18:13;;;;;;;3.75;0.90;;;14.00;99.90;;;;;;5007075;28;20061;-39
2022/10/16 08:20:40;;;;;;;6.90;0.95;;;14.10;99.90;;;;;;5007355;28;20467;-39
2022/10/16 08:23:06;;;;;;;2.92;0.80;;;14.10;99.90;;;;;;5007311;28;20097;-39
2022/10/16 08:25:36;;;;;;;3.35;0.70;;;14.20;99.90;;;;;;5007536;28;20087;-39
2022/10/16 08:28:07;;;;;;;6.15;1.02;;;14.50;99.90;;;;;;5007208;28;20177;-39
2022/10/16 08:30:33;;;;;;;3.45;0.70;;;14.20;99.90;;;;;;5007418;28;20046;-39
2022/10/16 08:32:59;;;;;;;2.83;0.57;;;14.20;99.90;;;;;;5007069;28;20057;-39
2022/10/16 08:35:25;;;;;;;3.83;0.80;;;14.30;99.90;;;;;;5006681;28;20038;-39
2022/10/16 08:37:51;;;;;;;2.97;0.70;;;14.50;99.90;;;;;;5007032;28;20038;-39
2022/10/16 08:40:25;;;;;;;4.38;0.60;;;14.20;99.90;;;;;;5007036;28;20033;-40
2022/10/16 08:43:11;;;;;;;3.78;0.93;;;14.60;99.90;;;;;;5007261;28;20073;-39
2022/10/16 08:46:04;;;;;;;5.38;0.55;;;14.50;99.90;;;;;;5007548;28;20046;-39
2022/10/16 08:48:37;;;;;;;4.45;0.52;;;14.50;99.90;;;;;;5007277;28;20049;-39
2022/10/16 08:51:03;;;;;;;4.50;0.60;;;14.50;99.90;;;;;;5006805;28;20049;-39
2022/10/16 08:53:56;;;;;;;4.38;0.50;;;14.60;99.90;;;;;;5006817;28;20045;-40
2022/10/16 08:56:22;;;;;;;6.43;0.55;;;14.80;99.90;;;;;;5007028;28;20042;-39
2022/10/16 08:58:49;;;;;;;4.68;0.60;;;15.10;99.90;;;;;;5006539;28;20037;-39
2022/10/16 09:01:18;;;;;;;5.03;1.08;;;15.50;99.90;;;;;;5006370;28;20044;-40
2022/10/16 09:04:03;;;;;;;3.72;0.50;;;15.40;99.90;;;;;;5006214;28;20496;-40
2022/10/16 09:06:46;;;;;;;3.78;0.50;;;15.50;99.90;;;;;;5006867;28;20463;-39
2022/10/16 09:09:11;;;;;;;6.05;0.50;;;15.50;99.90;;;;;;5006328;28;20100;-39
2022/10/16 09:11:46;;;;;;;1.75;0.40;;;15.60;99.90;;;;;;5006699;28;20456;-40
2022/10/16 09:14:17;;;;;;;5.80;1.20;;;15.60;99.90;;;;;;5006620;28;20052;-39
2022/10/16 09:16:59;;;;;;;3.53;0.50;;;15.60;99.90;;;;;;5006476;28;20401;-40
2022/10/16 09:19:37;;;;;;;6.20;0.70;;;15.60;99.90;;;;;;5005059;28;20046;-40
2022/10/16 09:22:14;;;;;;;4.05;0.47;;;15.60;99.90;;;;;;5006462;28;20041;-40
2022/10/16 09:24:39;;;;;;;3.60;0.60;;;15.80;99.90;;;;;;5006522;28;20054;-39
2022/10/16 09:27:11;;;;;;;3.03;0.55;;;15.70;99.90;;;;;;5006325;28;20038;-39
2022/10/16 09:29:37;;;;;;;5.53;0.57;;;15.70;99.90;;;;;;5006322;28;20037;-39
2022/10/16 09:32:20;;;;;;;2.72;0.85;;;16.20;99.90;;;;;;5006209;28;20502;-39
2022/10/16 09:34:52;;;;;;;5.22;0.73;;;15.80;99.90;;;;;;5006218;28;20148;-39
2022/10/16 09:37:20;;;;;;;;;;;16.10;99.90;;;;;;5006044;28;20502;-41
2022/10/16 09:39:53;;;;;;;8.05;1.20;;;15.80;99.90;;;;;;5006082;28;19921;-39
2022/10/16 09:42:32;;;;;;;7.13;1.70;;;15.90;99.90;;;;;;5006048;28;20054;-39
2022/10/16 09:44:58;;;;;;;5.55;0.63;;;15.90;99.90;;;;;;5006055;28;20532;-39
2022/10/16 09:47:27;;;;;;;6.53;0.80;;;15.90;99.90;;;;;;5005323;28;20794;-39
2022/10/16 09:49:57;;;;;;;6.90;1.20;;;15.90;99.90;;;;;;5006103;28;20042;-39
2022/10/16 09:52:23;;;;;;;7.00;1.10;;;15.90;99.90;;;;;;5005711;28;20100;-39
2022/10/16 09:54:59;;;;;;;3.55;0.43;;;16.10;99.90;;;;;;5006044;28;20046;-40
2022/10/16 09:57:25;;;;;;;7.60;0.75;;;16.20;99.90;;;;;;5005854;28;20052;-39
2022/10/16 09:59:56;;;;;;;8.15;0.82;;;16.10;99.90;;;;;;5005133;28;20046;-40
2022/10/16 10:02:35;;;;;;;8.38;1.60;;;16.20;99.90;;;;;;5004255;28;20500;-40
2022/10/16 10:05:04;;;;;;;8.35;0.98;;;16.30;99.90;;;;;;5004612;28;20085;-40
2022/10/16 10:07:40;;;;;;;5.47;0.70;;;16.40;99.90;;;;;;5004625;28;20048;-39
2022/10/16 10:10:19;;;;;;;8.68;0.65;;;16.40;99.90;;;;;;5004493;28;20404;-39
2022/10/16 10:12:45;;;;;;;5.32;0.75;;;16.40;99.90;;;;;;5004625;28;20056;-40
2022/10/16 10:15:13;;;;;;;9.68;0.77;;;16.30;99.90;;;;;;5003879;28;20061;-40
2022/10/16 10:17:56;;;;;;;7.60;0.95;;;16.40;99.90;;;;;;5004170;28;20057;-40
2022/10/16 10:20:27;;;;;;;7.72;0.93;;;16.30;99.90;;;;;;5004600;28;20049;-40
2022/10/16 10:22:55;;;;;;;9.75;0.68;;;16.40;99.90;;;;;;5004756;28;20107;-39
2022/10/16 10:25:23;;;;;;;6.22;1.02;;;16.20;99.90;;;;;;5004456;28;20061;-39
2022/10/16 10:28:22;;;;;;;12.25;0.80;;;16.10;99.90;;;;;;5005189;28;20050;-40
2022/10/16 10:31:16;;;;;;;6.68;0.90;;;16.10;99.90;;;;;;5004957;28;20442;-39
2022/10/16 10:33:55;;;;;;;5.18;0.40;;;16.10;99.90;;;;;;5004813;28;20192;-40
2022/10/16 10:36:36;;;;;;;9.90;0.77;;;16.20;99.90;;;;;;5004738;28;20053;-39
2022/10/16 10:39:08;;;;;;;11.82;1.00;;;16.20;99.90;;;;;;5004509;28;20556;-40
2022/10/16 10:41:54;;;;;;;7.00;1.33;;;16.20;99.90;;;;;;5004677;28;20038;-39
2022/10/16 10:44:38;;;;;;;5.00;0.60;;;16.40;99.90;;;;;;5004006;28;20373;-39
2022/10/16 10:47:30;;;;;;;7.80;0.73;;;16.40;99.90;;;;;;5004696;28;20095;-39
2022/10/16 10:50:30;;;;;;;6.78;0.88;;;16.40;99.90;;;;;;5004351;28;20349;-40
2022/10/16 10:53:17;;;;;;;9.93;1.17;;;16.40;99.90;;;;;;5004355;28;20046;-39
2022/10/16 10:55:49;;;;;;;7.72;0.75;;;16.40;99.90;;;;;;5004467;28;20056;-40
2022/10/16 10:58:33;;;;;;;7.97;1.02;;;16.30;99.90;;;;;;5004434;28;20045;-39
2022/10/16 11:01:13;;;;;;;6.35;0.95;;;16.40;99.90;;;;;;5007728;28;20577;-39
2022/10/16 11:03:53;;;;;;;5.10;0.63;;;16.40;99.90;;;;;;5008198;28;20404;-39
2022/10/16 11:06:32;;;;;;;8.57;0.95;;;16.40;99.90;;;;;;5007169;28;20518;-39
2022/10/16 11:09:26;;;;;;;7.13;0.95;;;16.50;99.90;;;;;;5005878;28;20053;-39
2022/10/16 11:12:05;;;;;;;5.78;1.38;;;16.50;99.90;;;;;;5007716;28;20053;-39
2022/10/16 11:14:36;;;;;;;5.85;0.70;;;16.60;99.90;;;;;;5007124;28;20054;-39
2022/10/16 11:17:14;;;;;;;6.85;0.88;;;16.80;99.90;;;;;;5007091;28;20288;-39
2022/10/16 11:19:59;;;;;;;6.60;1.20;;;16.90;99.90;;;;;;5007219;28;20077;-37
2022/10/16 11:22:33;;;;;;;8.95;0.98;;;16.90;99.90;;;;;;5007024;28;20381;-39
2022/10/16 11:25:05;;;;;;;11.98;1.13;;;17.00;99.90;;;;;;5007129;28;20472;-39
2022/10/16 11:27:39;;;;;;;;;;;17.00;99.90;;;;;;5007250;28;20563;-39
2022/10/16 11:30:24;;;;;;;6.10;0.60;;;17.00;99.90;;;;;;5006957;28;19921;-39
2022/10/16 11:33:08;;;;;;;9.93;1.42;;;16.90;99.90;;;;;;5007332;28;20377;-40
2022/10/16 11:35:49;;;;;;;8.20;0.80;;;16.90;99.90;;;;;;5006049;28;20037;-40
2022/10/16 11:38:29;;;;;;;8.43;0.60;;;17.00;99.90;;;;;;5006929;28;20050;-40
2022/10/16 11:41:00;;;;;;;5.93;0.93;;;17.00;99.90;;;;;;5006680;28;20048;-39
2022/10/16 11:43:37;;;;;;;9.73;1.30;;;16.80;99.90;;;;;;5007234;28;20492;-39
2022/10/16 11:46:12;;;;;;;10.32;1.00;;;16.60;99.90;;;;;;5008340;28;20045;-39
2022/10/16 11:49:02;;;;;;;6.03;0.70;;;16.60;99.90;;;;;;5008590;28;20744;-39
2022/10/16 11:51:40;;;;;;;5.53;1.00;;;16.60;99.90;;;;;;5008413;28;20152;-39
2022/10/16 11:54:25;;;;;;;7.72;1.25;;;16.70;99.90;;;;;;5008345;28;20048;-39
2022/10/16 11:56:54;;;;;;;11.27;0.93;;;16.60;99.90;;;;;;5007081;28;20054;-39
2022/10/16 11:59:37;;;;;;;6.20;0.98;;;16.80;99.90;;;;;;5008211;28;20038;-39
2022/10/16 12:02:30;;;;;;;8.98;0.65;;;16.80;99.90;;;;;;5008681;28;20046;-39
2022/10/16 12:05:20;;;;;;;11.60;0.82;;;16.90;99.90;;;;;;5008106;28;20173;-39
2022/10/16 12:08:04;;;;;;;9.32;0.50;;;16.90;99.90;;;;;;5007976;28;20046;-39
2022/10/16 12:10:37;;;;;;;33.30;1.85;;;16.90;99.90;;;;;;5007280;28;20049;-39
2022/10/16 12:13:22;;;;;;;6.10;1.08;;;16.90;99.90;;;;;;5007929;28;20049;-39
2022/10/16 12:15:47;;;;;;;7.35;0.88;;;16.90;99.90;;;;;;5007970;28;20503;-39
2022/10/16 12:18:24;;;;;;;5.50;0.70;;;16.80;99.90;;;;;;5008282;28;20129;-39
2022/10/16 12:21:05;;;;;;;6.40;0.93;;;16.70;99.90;;;;;;5007415;28;20046;-39
2022/10/16 12:23:33;;;;;;;6.95;1.58;;;16.60;99.90;;;;;;5007722;28;20054;-39
2022/10/16 12:26:00;;;;;;;7.82;0.85;;;16.50;99.90;;;;;;5007522;28;20575;-39
2022/10/16 12:28:31;;;;;;;7.20;0.50;;;16.40;99.90;;;;;;5006940;28;20583;-39
2022/10/16 12:30:57;;;;;;;5.47;0.67;;;16.30;99.90;;;;;;5007396;28;20064;-39
2022/10/16 12:33:25;;;;;;;8.98;1.60;;;16.30;99.90;;;;;;5007198;28;20050;-39
2022/10/16 12:35:52;;;;;;;7.43;0.73;;;16.20;99.90;;;;;;5007294;28;20428;-39
2022/10/16 12:38:27;;;;;;;10.20;0.82;;;16.10;99.90;;;;;;5007436;28;20042;-39
2022/10/16 12:41:10;;;;;;;9.48;1.23;;;15.80;99.90;;;;;;5007362;28;20042;-39
2022/10/16 12:43:43;;;;;;;7.45;0.85;;;15.60;99.90;;;;;;5007466;28;20056;-39
2022/10/16 12:46:08;;;;;;;7.15;0.85;;;15.50;99.90;;;;;;5007794;28;20050;-39
2022/10/16 12:48:35;;;;;;;6.45;0.82;;;15.40;99.90;;;;;;5007244;28;20391;-39
2022/10/16 12:51:30;;;;;;;6.43;0.73;;;15.40;99.90;;;;;;5007918;28;20050;-39
2022/10/16 12:54:04;;;;;;;6.40;1.13;;;15.40;99.90;;;;;;5002863;28;20065;-39
2022/10/16 12:57:15;;;;;;;7.53;0.60;;;15.50;99.90;;;;;;5006266;28;20042;-39
2022/10/16 13:00:02;;;;;;;13.95;0.70;;;15.70;99.90;;;;;;5001813;28;20653;-39
2022/10/16 13:02:31;;;;;;;6.97;0.50;;;15.60;99.90;;;;;;5007563;28;20084;-39
2022/10/16 13:05:17;;;;;;;3.85;0.45;;;15.80;99.90;;;;;;5007680;28;20088;-40
2022/10/16 13:08:16;;;;;;;5.40;0.50;;;15.50;99.90;;;;;;5007722;28;20180;-39